createdAt,value
2023-04-20T00:06:57.287Z,9.99
2023-04-20T00:17:23.549Z,9.78
2023-04-20T00:27:49.160Z,9.55
2023-04-20T00:38:15.386Z,9.39
2023-04-20T00:48:41.287Z,9.17
2023-04-20T00:59:08.181Z,9.03
2023-04-20T01:09:34.163Z,8.99
2023-04-20T01:20:00.379Z,9.10
2023-04-20T01:30:26.662Z,9.07
2023-04-20T01:40:52.899Z,9.02
2023-04-20T01:51:18.866Z,8.80
2023-04-20T02:01:44.746Z,8.83
2023-04-20T02:12:10.545Z,8.88
2023-04-20T02:22:36.369Z,8.82
2023-04-20T02:33:02.556Z,8.77
2023-04-20T02:43:28.681Z,8.66
2023-04-20T02:53:54.524Z,8.72
2023-04-20T03:04:21.173Z,8.88
2023-04-20T03:14:47.189Z,9.02
2023-04-20T03:25:13.087Z,9.15
2023-04-20T03:35:39.590Z,9.17
2023-04-20T03:46:05.310Z,8.98
2023-04-20T03:56:31.541Z,8.93
2023-04-20T04:06:57.251Z,8.81
2023-04-20T04:17:23.724Z,8.86
2023-04-20T04:27:49.582Z,8.84
2023-04-20T04:38:16.073Z,8.66
2023-04-20T04:48:46.762Z,8.60
2023-04-20T04:59:12.737Z,8.57
2023-04-20T05:09:38.172Z,8.71
2023-04-20T05:20:06.493Z,8.88
2023-04-20T05:30:32.793Z,9.08
2023-04-20T05:40:58.869Z,9.29
2023-04-20T05:51:29.093Z,9.80
2023-04-20T06:01:54.937Z,10.03
2023-04-20T06:12:21.215Z,10.20
2023-04-20T06:22:47.392Z,10.51
2023-04-20T06:33:17.225Z,10.59
2023-04-20T06:43:45.462Z,10.75
2023-04-20T06:54:11.044Z,10.56
2023-04-20T07:04:36.712Z,10.53
2023-04-20T07:15:03.120Z,10.55
2023-04-20T07:25:31.523Z,10.47
2023-04-20T07:35:58.152Z,10.68
2023-04-20T07:46:25.212Z,11.19
2023-04-20T07:56:50.838Z,11.71
2023-04-20T08:07:16.815Z,11.80
2023-04-20T08:17:42.502Z,12.27
2023-04-20T08:28:11.985Z,12.56
2023-04-20T08:38:42.198Z,12.78
2023-04-20T08:49:12.894Z,13.05
2023-04-20T08:59:39.563Z,13.12
2023-04-20T09:10:05.285Z,13.14
2023-04-20T09:20:33.493Z,13.18
2023-04-20T09:30:59.161Z,13.38
2023-04-20T09:41:24.981Z,13.71
2023-04-20T09:51:51.962Z,14.02
2023-04-20T10:02:17.740Z,14.22
2023-04-20T10:12:55.517Z,14.14
2023-04-20T10:23:21.422Z,14.00
2023-04-20T10:33:55.624Z,14.04
2023-04-20T10:44:21.698Z,14.03
2023-04-20T10:54:47.948Z,13.94
2023-04-20T11:05:18.952Z,13.90
2023-04-20T11:15:44.899Z,13.86
2023-04-20T11:26:11.202Z,13.79
2023-04-20T11:36:41.930Z,13.82
2023-04-20T11:47:08.100Z,13.95
2023-04-20T11:57:34.817Z,14.07
2023-04-20T12:08:00.408Z,14.14
2023-04-20T12:18:26.310Z,14.27
2023-04-20T12:28:52.414Z,14.35
2023-04-20T12:39:18.472Z,14.42
2023-04-20T12:49:44.199Z,14.46
2023-04-20T13:00:14.643Z,14.44
2023-04-20T13:10:42.846Z,14.38
2023-04-20T13:21:09.290Z,14.71
2023-04-20T13:31:34.769Z,14.82
2023-04-20T13:42:00.765Z,14.70
2023-04-20T13:52:26.808Z,14.70
2023-04-20T14:02:52.593Z,14.75
2023-04-20T14:13:19.083Z,14.85
2023-04-20T14:23:45.099Z,14.76
2023-04-20T14:34:10.692Z,14.73
2023-04-20T14:44:36.466Z,14.75
2023-04-20T14:55:02.308Z,14.85
2023-04-20T15:05:28.915Z,14.93
2023-04-20T15:15:55.447Z,14.97
2023-04-20T15:26:21.585Z,15.01
2023-04-20T15:36:47.587Z,14.99
2023-04-20T15:47:13.657Z,14.94
2023-04-20T15:57:39.689Z,14.91
2023-04-20T16:08:06.665Z,14.91
2023-04-20T16:18:33.126Z,14.95
2023-04-20T16:28:58.832Z,15.02
2023-04-20T16:39:24.779Z,14.99
2023-04-20T16:49:51.163Z,14.92
2023-04-20T17:00:19.529Z,14.88
2023-04-20T17:10:45.240Z,14.83
2023-04-20T17:21:11.874Z,14.70
2023-04-20T17:31:37.469Z,14.56
2023-04-20T17:42:03.617Z,14.52
2023-04-20T17:52:29.520Z,14.38
2023-04-20T18:02:55.793Z,14.29
2023-04-20T18:13:21.657Z,14.17
2023-04-20T18:23:47.428Z,14.01
2023-04-20T18:34:13.661Z,13.95
2023-04-20T18:44:41.080Z,13.91
2023-04-20T18:55:08.414Z,13.96
2023-04-20T19:05:34.088Z,13.67
2023-04-20T19:15:59.790Z,13.47
2023-04-20T19:26:26.046Z,13.19
2023-04-20T19:36:51.691Z,13.12
2023-04-20T19:47:20.863Z,13.03
2023-04-20T19:57:46.971Z,12.91
2023-04-20T20:08:13.754Z,12.71
2023-04-20T20:18:39.555Z,12.55
2023-04-20T20:29:05.521Z,12.20
2023-04-20T20:39:32.452Z,11.96
2023-04-20T20:49:58.290Z,11.91
2023-04-20T21:00:24.153Z,11.85
2023-04-20T21:10:50.316Z,11.78
2023-04-20T21:21:16.794Z,11.08
2023-04-20T21:31:42.773Z,10.48
2023-04-20T21:42:09.039Z,10.48
2023-04-20T21:52:34.713Z,10.41
2023-04-20T22:03:04.211Z,10.40
2023-04-20T22:13:30.205Z,10.35
2023-04-20T22:23:56.695Z,10.23
2023-04-20T22:34:22.561Z,10.08
2023-04-20T22:44:49.343Z,9.90
2023-04-20T22:55:15.480Z,9.74
2023-04-20T23:05:44.527Z,9.70
2023-04-20T23:16:11.412Z,9.55
2023-04-20T23:26:37.412Z,9.42
2023-04-20T23:37:03.468Z,9.33
2023-04-20T23:47:28.930Z,9.20
2023-04-20T23:57:55.272Z,9.10
